createdAt,value
2019-02-11T00:00:03.761Z,86.99
2019-02-11T00:02:32.347Z,87.03
2019-02-11T00:05:01.024Z,86.99
2019-02-11T00:07:29.606Z,86.98
2019-02-11T00:09:58.194Z,87.97
2019-02-11T00:12:26.854Z,87.11
2019-02-11T00:14:55.499Z,86.27
2019-02-11T00:17:24.086Z,86.27
2019-02-11T00:19:52.667Z,86.56
2019-02-11T00:22:21.246Z,85.47
2019-02-11T00:24:49.834Z,85.21
2019-02-11T00:27:18.419Z,84.53
2019-02-11T00:29:47.000Z,82.14
2019-02-11T00:32:15.578Z,82.49
2019-02-11T00:34:44.173Z,84.77
2019-02-11T00:37:12.754Z,84.95
2019-02-11T00:39:41.370Z,84.38
2019-02-11T00:42:10.939Z,85.75
2019-02-11T00:44:39.531Z,84.51
2019-02-11T00:47:08.739Z,85.33
2019-02-11T00:49:37.361Z,86.17
2019-02-11T00:52:05.983Z,87.88
2019-02-11T00:54:34.579Z,89.91
2019-02-11T00:57:03.164Z,90.82
2019-02-11T00:59:31.741Z,91.60
2019-02-11T01:02:00.322Z,92.06
2019-02-11T01:04:29.037Z,92.07
2019-02-11T01:06:57.966Z,93.15
2019-02-11T01:09:26.657Z,91.02
2019-02-11T01:11:55.302Z,91.86
2019-02-11T01:14:23.867Z,92.90
2019-02-11T01:16:52.448Z,92.33
2019-02-11T01:19:21.030Z,92.14
2019-02-11T01:21:49.608Z,93.18
2019-02-11T01:24:18.190Z,92.39
2019-02-11T01:26:46.776Z,93.02
2019-02-11T01:29:15.360Z,92.81
2019-02-11T01:31:43.943Z,92.71
2019-02-11T01:34:12.527Z,92.38
2019-02-11T01:36:41.126Z,92.63
2019-02-11T01:39:09.970Z,92.41
2019-02-11T01:41:38.611Z,92.59
2019-02-11T01:44:07.580Z,93.00
2019-02-11T01:46:36.174Z,92.86
2019-02-11T01:49:04.753Z,92.70
2019-02-11T01:51:33.341Z,93.33
2019-02-11T01:54:01.980Z,93.35
2019-02-11T01:56:30.629Z,92.89
2019-02-11T01:58:59.209Z,93.33
2019-02-11T02:01:27.794Z,92.67
2019-02-11T02:03:56.380Z,91.84
2019-02-11T02:06:24.954Z,92.38
2019-02-11T02:08:53.537Z,92.46
2019-02-11T02:11:22.178Z,92.36
2019-02-11T02:13:50.762Z,92.11
2019-02-11T02:16:19.389Z,91.88
2019-02-11T02:18:47.961Z,92.48
2019-02-11T02:21:16.546Z,92.55
2019-02-11T02:23:45.131Z,92.45
2019-02-11T02:26:13.728Z,92.36
2019-02-11T02:28:42.300Z,92.35
2019-02-11T02:31:11.083Z,92.16
2019-02-11T02:33:39.664Z,91.45
2019-02-11T02:36:08.498Z,92.04
2019-02-11T02:38:37.071Z,93.16
2019-02-11T02:41:05.650Z,93.11
2019-02-11T02:43:34.234Z,93.35
2019-02-11T02:46:02.852Z,93.96
2019-02-11T02:48:31.433Z,93.72
2019-02-11T02:51:00.012Z,94.71
2019-02-11T02:53:28.591Z,94.76
2019-02-11T02:55:57.179Z,94.66
2019-02-11T02:58:25.759Z,94.48
2019-02-11T03:00:54.414Z,94.21
2019-02-11T03:03:22.991Z,94.21
2019-02-11T03:05:52.941Z,93.30
2019-02-11T03:08:21.832Z,93.24
2019-02-11T03:10:50.408Z,93.45
2019-02-11T03:13:18.987Z,93.32
2019-02-11T03:15:47.642Z,93.66
2019-02-11T03:18:16.222Z,93.58
2019-02-11T03:20:44.799Z,93.85
2019-02-11T03:23:13.380Z,93.74
2019-02-11T03:25:42.003Z,93.69
2019-02-11T03:28:11.741Z,93.63
2019-02-11T03:30:40.375Z,93.33
2019-02-11T03:33:09.639Z,93.76
2019-02-11T03:35:38.286Z,93.25
2019-02-11T03:38:07.143Z,92.88
2019-02-11T03:40:36.129Z,92.27
2019-02-11T03:43:04.699Z,92.63
2019-02-11T03:45:33.319Z,93.95
2019-02-11T03:48:01.904Z,92.49
2019-02-11T03:50:30.527Z,93.25
2019-02-11T03:52:59.109Z,92.46
2019-02-11T03:55:27.684Z,92.89
2019-02-11T03:57:56.261Z,93.23
2019-02-11T04:00:24.853Z,93.26
2019-02-11T04:02:53.428Z,92.25
2019-02-11T04:05:22.130Z,93.10
2019-02-11T04:07:50.711Z,93.61
2019-02-11T04:10:19.298Z,92.89
2019-02-11T04:12:47.873Z,92.51
2019-02-11T04:15:16.453Z,92.67
2019-02-11T04:17:45.037Z,92.73
2019-02-11T04:20:13.610Z,92.81
2019-02-11T04:22:42.198Z,92.85
2019-02-11T04:25:10.970Z,92.99
2019-02-11T04:27:39.554Z,93.26
2019-02-11T04:30:10.128Z,94.51
2019-02-11T04:32:38.714Z,94.92
2019-02-11T04:35:07.981Z,94.88
2019-02-11T04:37:36.559Z,94.90
2019-02-11T04:40:08.187Z,94.63
2019-02-11T04:42:36.767Z,94.74
2019-02-11T04:45:07.376Z,92.34
2019-02-11T04:47:35.957Z,92.40
2019-02-11T04:50:06.848Z,93.44
2019-02-11T04:52:35.466Z,94.81
2019-02-11T04:55:04.449Z,94.92
2019-02-11T04:57:33.035Z,95.18
2019-02-11T05:00:01.663Z,94.95
2019-02-11T05:02:30.265Z,95.55
2019-02-11T05:04:58.863Z,95.67
2019-02-11T05:07:27.451Z,95.37
2019-02-11T05:09:56.144Z,94.57
2019-02-11T05:12:24.727Z,93.90
2019-02-11T05:14:53.304Z,92.78
2019-02-11T05:17:21.890Z,93.58
2019-02-11T05:19:50.473Z,94.17
2019-02-11T05:22:19.048Z,94.28
2019-02-11T05:24:47.680Z,93.27
2019-02-11T05:27:16.256Z,92.90
2019-02-11T05:29:44.831Z,93.12
2019-02-11T05:32:13.409Z,93.82
2019-02-11T05:34:41.989Z,93.49
2019-02-11T05:37:12.016Z,93.56
2019-02-11T05:39:40.605Z,93.56
2019-02-11T05:42:09.625Z,93.23
2019-02-11T05:44:38.262Z,93.40
2019-02-11T05:47:07.735Z,93.12
2019-02-11T05:49:36.314Z,93.43
2019-02-11T05:52:04.897Z,93.35
2019-02-11T05:54:34.016Z,93.57
2019-02-11T05:57:02.697Z,93.19
2019-02-11T05:59:31.272Z,92.63
2019-02-11T06:01:59.902Z,92.95
2019-02-11T06:04:28.480Z,93.17
2019-02-11T06:06:57.125Z,93.00
2019-02-11T06:09:25.708Z,92.78
2019-02-11T06:11:54.284Z,92.57
2019-02-11T06:14:22.938Z,92.97
2019-02-11T06:16:51.514Z,93.32
2019-02-11T06:19:20.103Z,92.41
2019-02-11T06:21:48.679Z,92.05
2019-02-11T06:24:17.255Z,92.45
2019-02-11T06:26:45.836Z,92.71
2019-02-11T06:29:14.458Z,92.71
2019-02-11T06:31:43.041Z,91.93
2019-02-11T06:34:11.620Z,91.91
2019-02-11T06:36:40.256Z,89.77
2019-02-11T06:39:09.098Z,91.44
2019-02-11T06:41:37.680Z,92.32
2019-02-11T06:44:06.263Z,92.96
2019-02-11T06:46:34.899Z,93.55
2019-02-11T06:49:03.482Z,92.87
2019-02-11T06:51:32.062Z,92.90
2019-02-11T06:54:00.641Z,93.11
2019-02-11T06:56:29.238Z,94.39
2019-02-11T06:58:57.815Z,92.70
2019-02-11T07:01:26.439Z,93.14
2019-02-11T07:03:55.014Z,92.53
2019-02-11T07:06:23.597Z,92.52
2019-02-11T07:08:52.174Z,92.54
2019-02-11T07:11:20.766Z,92.59
2019-02-11T07:13:49.345Z,92.86
2019-02-11T07:16:17.925Z,92.99
2019-02-11T07:18:46.552Z,92.35
2019-02-11T07:21:15.177Z,92.59
2019-02-11T07:23:43.771Z,92.79
2019-02-11T07:26:12.347Z,92.50
2019-02-11T07:28:40.931Z,92.59
2019-02-11T07:31:11.204Z,92.36
2019-02-11T07:33:39.923Z,92.28
2019-02-11T07:36:09.151Z,92.82
2019-02-11T07:38:37.729Z,91.76
2019-02-11T07:41:06.314Z,92.41
2019-02-11T07:43:36.461Z,92.02
2019-02-11T07:46:06.615Z,92.26
2019-02-11T07:48:35.198Z,92.60
2019-02-11T07:51:03.793Z,92.82
2019-02-11T07:53:32.366Z,92.97
2019-02-11T07:56:00.996Z,92.88
2019-02-11T07:58:29.576Z,93.84
2019-02-11T08:00:58.163Z,92.65
2019-02-11T08:03:26.751Z,92.64
2019-02-11T08:05:55.374Z,92.54
2019-02-11T08:08:23.957Z,92.41
2019-02-11T08:10:52.553Z,92.54
2019-02-11T08:13:21.133Z,93.15
2019-02-11T08:15:49.769Z,92.29
2019-02-11T08:18:18.352Z,92.17
2019-02-11T08:20:46.981Z,92.04
2019-02-11T08:23:15.594Z,92.45
2019-02-11T08:25:44.217Z,92.51
2019-02-11T08:28:19.418Z,92.32
2019-02-11T08:30:43.108Z,92.37
2019-02-11T08:33:11.701Z,94.20
2019-02-11T08:35:40.288Z,92.49
2019-02-11T08:38:09.688Z,92.09
2019-02-11T08:40:38.272Z,91.64
2019-02-11T08:43:07.240Z,91.70
2019-02-11T08:45:35.855Z,92.30
2019-02-11T08:48:04.428Z,91.49
2019-02-11T08:50:33.007Z,92.23
2019-02-11T08:53:01.592Z,91.72
2019-02-11T08:55:30.179Z,91.35
2019-02-11T08:57:58.761Z,91.28
2019-02-11T09:00:27.346Z,91.29
2019-02-11T09:02:55.930Z,91.11
2019-02-11T09:05:24.592Z,91.49
2019-02-11T09:07:53.183Z,91.67
2019-02-11T09:10:21.810Z,91.52
2019-02-11T09:12:50.390Z,90.77
2019-02-11T09:15:18.973Z,91.35
2019-02-11T09:17:47.555Z,90.65
2019-02-11T09:20:16.144Z,90.94
2019-02-11T09:22:44.726Z,91.16
2019-02-11T09:25:13.308Z,92.13
2019-02-11T09:27:41.947Z,92.59
2019-02-11T09:30:14.435Z,93.57
2019-02-11T09:32:43.018Z,93.14
2019-02-11T09:35:12.027Z,91.85
2019-02-11T09:37:40.607Z,92.64
2019-02-11T09:40:15.387Z,91.37
2019-02-11T09:42:43.974Z,91.82
2019-02-11T09:45:24.503Z,91.60
2019-02-11T09:47:53.083Z,91.51
2019-02-11T09:50:27.664Z,93.04
2019-02-11T09:52:56.248Z,90.63
2019-02-11T09:55:27.078Z,91.62
2019-02-11T09:57:55.659Z,91.97
2019-02-11T10:00:24.243Z,91.78
2019-02-11T10:02:52.824Z,91.26
2019-02-11T10:05:21.426Z,92.32
2019-02-11T10:07:50.019Z,91.45
2019-02-11T10:10:18.597Z,91.79
2019-02-11T10:12:47.182Z,91.50
2019-02-11T10:15:15.826Z,91.85
2019-02-11T10:17:44.407Z,91.99
2019-02-11T10:20:14.631Z,92.00
2019-02-11T10:22:43.187Z,92.17
2019-02-11T10:25:18.577Z,92.52
2019-02-11T10:27:47.158Z,91.85
2019-02-11T10:30:16.111Z,92.79
2019-02-11T10:32:44.695Z,93.25
2019-02-11T10:35:14.385Z,93.25
2019-02-11T10:37:42.980Z,92.01
2019-02-11T10:40:13.283Z,91.90
2019-02-11T10:42:41.857Z,92.95
2019-02-11T10:45:12.830Z,91.58
2019-02-11T10:47:43.298Z,91.52
2019-02-11T10:50:14.596Z,91.21
2019-02-11T10:52:43.183Z,91.66
2019-02-11T10:55:15.289Z,91.29
2019-02-11T10:57:44.078Z,91.75
2019-02-11T11:00:18.128Z,91.07
2019-02-11T11:02:46.713Z,90.97
2019-02-11T11:05:15.393Z,90.68
2019-02-11T11:07:43.972Z,91.21
2019-02-11T11:10:32.323Z,90.95
2019-02-11T11:13:00.915Z,90.99
2019-02-11T11:15:29.527Z,90.77
2019-02-11T11:17:58.152Z,91.02
2019-02-11T11:20:26.941Z,90.40
2019-02-11T11:22:55.522Z,89.20
2019-02-11T11:25:24.165Z,90.82
2019-02-11T11:27:52.751Z,90.00
2019-02-11T11:30:21.337Z,90.34
2019-02-11T11:32:49.915Z,91.08
2019-02-11T11:35:18.842Z,90.61
2019-02-11T11:37:47.465Z,89.53
2019-02-11T11:40:17.953Z,91.32
2019-02-11T11:42:46.636Z,91.39
2019-02-11T11:45:17.672Z,91.73
2019-02-11T11:47:46.292Z,90.23
2019-02-11T11:50:16.364Z,90.71
2019-02-11T11:52:44.942Z,90.77
2019-02-11T11:55:21.474Z,91.24
2019-02-11T11:57:50.047Z,91.20
2019-02-11T12:00:26.915Z,90.78
2019-02-11T12:03:02.811Z,89.73
2019-02-11T12:05:25.802Z,89.47
2019-02-11T12:07:54.448Z,90.56
2019-02-11T12:10:23.056Z,88.75
2019-02-11T12:12:51.715Z,90.24
2019-02-11T12:15:22.913Z,90.88
2019-02-11T12:17:51.671Z,90.26
2019-02-11T12:20:20.330Z,89.20
2019-02-11T12:22:49.013Z,89.16
2019-02-11T12:25:18.387Z,89.66
2019-02-11T12:27:46.983Z,89.60
2019-02-11T12:30:24.044Z,90.24
2019-02-11T12:32:54.910Z,89.65
2019-02-11T12:35:23.031Z,89.80
2019-02-11T12:37:51.799Z,89.08
2019-02-11T12:40:20.398Z,89.05
2019-02-11T12:42:52.381Z,88.08
2019-02-11T12:45:24.414Z,88.08
2019-02-11T12:47:53.146Z,88.41
2019-02-11T12:50:21.746Z,88.47
2019-02-11T12:52:50.384Z,87.30
2019-02-11T12:55:19.483Z,89.13
2019-02-11T12:57:48.143Z,89.07
2019-02-11T13:00:25.482Z,88.30
2019-02-11T13:02:54.054Z,88.01
2019-02-11T13:05:40.297Z,88.59
2019-02-11T13:07:52.963Z,87.46
2019-02-11T13:10:21.534Z,88.42
2019-02-11T13:12:50.166Z,88.97
2019-02-11T13:15:59.267Z,88.94
2019-02-11T13:17:50.086Z,89.82
2019-02-11T13:20:19.333Z,90.29
2019-02-11T13:22:48.267Z,87.81
2019-02-11T13:25:20.140Z,86.83
2019-02-11T13:27:48.809Z,86.00
2019-02-11T13:30:22.047Z,86.00
2019-02-11T13:32:50.627Z,86.10
2019-02-11T13:35:19.253Z,86.72
2019-02-11T13:37:47.834Z,86.01
2019-02-11T13:40:16.507Z,84.72
2019-02-11T13:42:45.139Z,83.03
2019-02-11T13:45:15.836Z,83.80
2019-02-11T13:47:53.644Z,83.71
2019-02-11T13:50:28.666Z,82.22
2019-02-11T13:52:57.673Z,84.60
2019-02-11T13:55:30.530Z,82.74
2019-02-11T13:57:57.261Z,81.87
2019-02-11T14:00:31.359Z,80.87
2019-02-11T14:03:02.365Z,80.87
2019-02-11T14:05:31.583Z,81.53
2019-02-11T14:08:00.862Z,81.12
2019-02-11T14:10:29.679Z,83.04
2019-02-11T14:12:58.360Z,82.67
2019-02-11T14:15:27.114Z,81.78
2019-02-11T14:18:11.044Z,82.68
2019-02-11T14:20:27.645Z,81.87
2019-02-11T14:22:56.328Z,79.87
2019-02-11T14:25:41.028Z,82.03
2019-02-11T14:27:55.229Z,81.95
2019-02-11T14:30:23.881Z,83.48
2019-02-11T14:32:52.534Z,84.24
2019-02-11T14:35:21.437Z,82.93
2019-02-11T14:37:50.195Z,84.26
2019-02-11T14:40:18.758Z,85.06
2019-02-11T14:42:47.338Z,84.79
2019-02-11T14:45:20.038Z,84.15
2019-02-11T14:47:48.688Z,81.72
2019-02-11T14:50:17.355Z,82.01
2019-02-11T14:52:45.944Z,83.76
2019-02-11T14:55:14.592Z,81.59
2019-02-11T14:57:43.242Z,82.41
2019-02-11T15:00:18.525Z,82.47
2019-02-11T15:02:47.104Z,84.96
2019-02-11T15:05:15.985Z,85.27
2019-02-11T15:07:44.571Z,85.46
2019-02-11T15:10:13.577Z,84.87
2019-02-11T15:12:42.170Z,84.96
2019-02-11T15:15:12.648Z,85.27
2019-02-11T15:17:43.587Z,84.18
2019-02-11T15:20:14.858Z,83.40
2019-02-11T15:22:43.441Z,84.04
2019-02-11T15:25:17.340Z,83.25
2019-02-11T15:27:45.931Z,82.86
2019-02-11T15:30:19.714Z,83.51
2019-02-11T15:32:48.346Z,83.57
2019-02-11T15:35:16.948Z,82.71
2019-02-11T15:37:45.587Z,84.21
2019-02-11T15:40:16.668Z,82.94
2019-02-11T15:42:45.252Z,81.61
2019-02-11T15:45:14.963Z,81.56
2019-02-11T15:47:43.542Z,81.81
2019-02-11T15:50:19.092Z,78.05
2019-02-11T15:52:47.743Z,78.10
2019-02-11T15:55:18.455Z,78.62
2019-02-11T15:57:47.038Z,81.24
2019-02-11T16:00:22.734Z,81.82
2019-02-11T16:02:51.874Z,80.82
2019-02-11T16:05:20.713Z,81.08
2019-02-11T16:07:49.297Z,80.41
2019-02-11T16:10:20.372Z,81.48
2019-02-11T16:12:48.956Z,81.19
2019-02-11T16:15:19.216Z,82.23
2019-02-11T16:17:48.062Z,83.74
2019-02-11T16:20:16.644Z,84.11
2019-02-11T16:22:45.223Z,84.17
2019-02-11T16:25:15.101Z,85.17
2019-02-11T16:27:43.685Z,87.31
2019-02-11T16:30:17.831Z,87.13
2019-02-11T16:32:46.411Z,87.91
2019-02-11T16:35:17.408Z,87.89
2019-02-11T16:37:45.989Z,88.29
2019-02-11T16:40:29.068Z,87.57
2019-02-11T16:42:57.647Z,87.78
2019-02-11T16:45:26.236Z,88.72
2019-02-11T16:47:54.817Z,89.11
2019-02-11T16:50:23.394Z,89.09
2019-02-11T16:52:51.968Z,89.19
2019-02-11T16:55:20.550Z,88.78
2019-02-11T16:57:49.170Z,89.45
2019-02-11T17:00:19.101Z,89.49
2019-02-11T17:02:47.678Z,89.49
2019-02-11T17:05:16.385Z,89.85
2019-02-11T17:07:44.965Z,89.27
2019-02-11T17:10:14.544Z,89.62
2019-02-11T17:12:43.161Z,89.98
2019-02-11T17:15:17.588Z,89.85
2019-02-11T17:17:46.157Z,89.40
2019-02-11T17:20:15.843Z,89.27
2019-02-11T17:22:44.719Z,89.06
2019-02-11T17:25:14.006Z,89.53
2019-02-11T17:27:42.600Z,89.59
2019-02-11T17:30:18.463Z,89.72
2019-02-11T17:32:47.087Z,89.56
2019-02-11T17:35:15.699Z,89.91
2019-02-11T17:37:46.152Z,90.36
2019-02-11T17:40:19.377Z,90.83
2019-02-11T17:48:50.919Z,90.74
2019-02-11T17:51:19.505Z,91.00
2019-02-11T17:53:48.699Z,90.76
2019-02-11T17:56:17.487Z,91.35
2019-02-11T17:58:46.098Z,90.33
2019-02-11T18:01:14.859Z,90.94
2019-02-11T18:03:43.446Z,90.74
2019-02-11T18:06:12.024Z,90.18
2019-02-11T18:08:40.660Z,90.38
2019-02-11T18:11:09.536Z,90.49
2019-02-11T18:13:38.140Z,91.06
2019-02-11T18:16:08.959Z,90.52
2019-02-11T18:18:37.544Z,90.85
2019-02-11T18:21:07.099Z,90.98
2019-02-11T18:23:39.961Z,90.98
2019-02-11T18:26:08.816Z,90.93
2019-02-11T18:28:37.397Z,91.89
2019-02-11T18:31:05.981Z,91.37
2019-02-11T18:33:34.570Z,90.61
2019-02-11T18:36:03.177Z,90.03
2019-02-11T18:38:31.760Z,90.15
2019-02-11T18:41:00.382Z,89.45
2019-02-11T18:43:29.010Z,90.21
2019-02-11T18:45:57.669Z,89.81
2019-02-11T18:48:26.258Z,90.03
2019-02-11T18:50:54.845Z,91.06
2019-02-11T18:53:23.436Z,91.20
2019-02-11T18:55:52.015Z,91.12
2019-02-11T18:58:20.679Z,90.94
2019-02-11T19:00:49.472Z,90.76
2019-02-11T19:03:18.027Z,89.69
2019-02-11T19:05:46.650Z,90.46
2019-02-11T19:08:15.245Z,90.64
2019-02-11T19:10:43.837Z,90.77
2019-02-11T19:13:12.459Z,91.19
2019-02-11T19:15:41.061Z,91.12
2019-02-11T19:18:10.392Z,91.23
2019-02-11T19:20:39.010Z,91.00
2019-02-11T19:23:07.588Z,90.63
2019-02-11T19:25:36.162Z,90.61
2019-02-11T19:28:04.745Z,90.86
2019-02-11T19:30:33.341Z,90.52
2019-02-11T19:33:01.979Z,90.45
2019-02-11T19:35:30.569Z,90.36
2019-02-11T19:37:59.154Z,90.60
2019-02-11T19:40:27.736Z,90.91
2019-02-11T19:42:56.321Z,90.60
2019-02-11T19:45:25.275Z,90.69
2019-02-11T19:47:53.853Z,90.53
2019-02-11T19:50:22.442Z,90.84
2019-02-11T19:52:51.028Z,91.11
2019-02-11T19:55:19.660Z,90.74
2019-02-11T19:57:48.345Z,91.19
2019-02-11T20:00:21.525Z,91.68
2019-02-11T20:02:50.608Z,91.79
2019-02-11T20:05:19.227Z,91.37
2019-02-11T20:07:47.877Z,91.32
2019-02-11T20:10:21.309Z,91.64
2019-02-11T20:12:50.896Z,92.21
2019-02-11T20:15:22.211Z,92.40
2019-02-11T20:17:51.035Z,92.26
2019-02-11T20:20:21.496Z,92.35
2019-02-11T20:22:50.362Z,92.41
2019-02-11T20:25:19.276Z,92.35
2019-02-11T20:27:48.373Z,92.38
2019-02-11T20:30:29.122Z,92.55
2019-02-11T20:32:57.924Z,92.48
2019-02-11T20:35:26.843Z,92.21
2019-02-11T20:37:55.652Z,92.10
2019-02-11T20:40:29.099Z,92.39
2019-02-11T20:42:57.730Z,92.55
2019-02-11T20:45:29.781Z,92.38
2019-02-11T20:47:58.375Z,92.70
2019-02-11T20:50:27.095Z,93.05
2019-02-11T20:52:55.851Z,92.91
2019-02-11T20:55:24.545Z,92.82
2019-02-11T20:58:00.527Z,92.92
2019-02-11T21:00:29.115Z,92.72
2019-02-11T21:02:57.840Z,92.53
2019-02-11T21:05:26.428Z,92.61
2019-02-11T21:07:55.169Z,92.60
2019-02-11T21:10:25.013Z,92.52
2019-02-11T21:12:53.632Z,92.63
2019-02-11T21:15:22.546Z,92.92
2019-02-11T21:17:51.186Z,92.89
2019-02-11T21:20:31.976Z,92.80
2019-02-11T21:23:00.593Z,92.92
2019-02-11T21:25:29.248Z,92.83
2019-02-11T21:27:57.829Z,92.59
2019-02-11T21:30:26.414Z,93.18
2019-02-11T21:32:55.099Z,92.81
2019-02-11T21:35:23.741Z,92.55
2019-02-11T21:37:52.326Z,92.80
2019-02-11T21:40:20.960Z,92.94
2019-02-11T21:42:49.541Z,92.78
2019-02-11T21:45:18.144Z,92.79
2019-02-11T21:47:46.955Z,92.45
2019-02-11T21:50:26.848Z,92.62
2019-02-11T21:52:52.415Z,92.54
2019-02-11T21:55:23.814Z,92.41
2019-02-11T21:57:52.533Z,92.35
2019-02-11T22:00:22.121Z,91.99
2019-02-11T22:02:50.867Z,91.02
2019-02-11T22:05:21.042Z,90.78
2019-02-11T22:07:49.689Z,91.41
2019-02-11T22:10:22.862Z,91.85
2019-02-11T22:12:51.438Z,91.55
2019-02-11T22:15:20.024Z,91.40
2019-02-11T22:17:48.614Z,91.04
2019-02-11T22:20:23.567Z,92.07
2019-02-11T22:22:52.212Z,91.78
2019-02-11T22:25:20.827Z,91.60
2019-02-11T22:27:49.408Z,91.64
2019-02-11T22:30:20.099Z,91.53
2019-02-11T22:32:48.684Z,91.15
2019-02-11T22:35:17.369Z,91.43
2019-02-11T22:37:46.752Z,90.88
2019-02-11T22:40:15.336Z,91.35
2019-02-11T22:42:43.924Z,91.57
2019-02-11T22:45:17.914Z,92.23
2019-02-11T22:47:46.501Z,91.73
2019-02-11T22:50:15.091Z,91.69
2019-02-11T22:52:43.678Z,91.63
2019-02-11T22:55:14.543Z,91.73
2019-02-11T22:57:43.171Z,92.18
2019-02-11T23:00:15.510Z,92.91
2019-02-11T23:02:44.099Z,93.21
2019-02-11T23:05:13.423Z,92.85
2019-02-11T23:07:42.006Z,92.24
2019-02-11T23:10:11.479Z,92.72
2019-02-11T23:12:40.095Z,92.37
2019-02-11T23:15:09.722Z,92.53
2019-02-11T23:17:38.304Z,92.09
2019-02-11T23:20:07.897Z,92.19
2019-02-11T23:22:36.485Z,92.12
2019-02-11T23:25:05.351Z,92.40
2019-02-11T23:27:33.990Z,91.97
2019-02-11T23:30:02.784Z,92.23
2019-02-11T23:32:31.368Z,92.21
2019-02-11T23:35:00.009Z,92.08
2019-02-11T23:37:28.599Z,92.11
2019-02-11T23:39:57.194Z,92.14
2019-02-11T23:42:25.788Z,92.14
2019-02-11T23:44:54.372Z,92.29
2019-02-11T23:47:22.946Z,91.93
2019-02-11T23:49:51.539Z,91.35
2019-02-11T23:52:20.119Z,91.81
2019-02-11T23:54:48.709Z,91.93
2019-02-11T23:57:17.296Z,92.11
2019-02-11T23:59:45.885Z,92.10
